sensor_id;sensor_type;location;lat;lon;timestamp;pressure;altitude;pressure_sealevel;temperature;humidity
72959;BME280;60008;50.826;6.896;2022-07-06T00:00:17;101849.50;;;16.25;59.66
72959;BME280;60008;50.826;6.896;2022-07-06T00:02:44;101847.72;;;15.93;59.59
72959;BME280;60008;50.826;6.896;2022-07-06T00:05:10;101846.22;;;15.83;60.16
72959;BME280;60008;50.826;6.896;2022-07-06T00:07:37;101852.75;;;15.88;60.08
72959;BME280;60008;50.826;6.896;2022-07-06T00:10:04;101857.44;;;15.94;60.41
72959;BME280;60008;50.826;6.896;2022-07-06T00:12:31;101849.56;;;15.93;60.81
72959;BME280;60008;50.826;6.896;2022-07-06T00:14:57;101848.75;;;15.92;61.18
72959;BME280;60008;50.826;6.896;2022-07-06T00:17:24;101846.75;;;15.78;62.11
72959;BME280;60008;50.826;6.896;2022-07-06T00:19:50;101841.53;;;15.69;61.48
72959;BME280;60008;50.826;6.896;2022-07-06T00:22:17;101853.59;;;15.57;62.54
72959;BME280;60008;50.826;6.896;2022-07-06T00:24:44;101850.41;;;15.53;63.29
72959;BME280;60008;50.826;6.896;2022-07-06T00:27:10;101848.53;;;15.45;62.98
72959;BME280;60008;50.826;6.896;2022-07-06T00:29:37;101850.34;;;15.37;63.17
72959;BME280;60008;50.826;6.896;2022-07-06T00:32:04;101843.19;;;15.45;63.82
72959;BME280;60008;50.826;6.896;2022-07-06T00:34:30;101845.00;;;15.45;62.61
72959;BME280;60008;50.826;6.896;2022-07-06T00:36:57;101844.69;;;15.40;63.09
72959;BME280;60008;50.826;6.896;2022-07-06T00:39:23;101845.31;;;15.26;63.67
72959;BME280;60008;50.826;6.896;2022-07-06T00:41:56;101851.47;;;15.18;64.13
72959;BME280;60008;50.826;6.896;2022-07-06T00:44:23;101858.16;;;15.30;64.61
72959;BME280;60008;50.826;6.896;2022-07-06T00:46:50;101856.66;;;15.28;63.62
72959;BME280;60008;50.826;6.896;2022-07-06T00:49:17;101855.81;;;15.27;64.31
72959;BME280;60008;50.826;6.896;2022-07-06T00:52:02;101855.16;;;15.25;64.38
72959;BME280;60008;50.826;6.896;2022-07-06T00:54:31;101861.59;;;14.99;63.96
72959;BME280;60008;50.826;6.896;2022-07-06T00:56:58;101861.91;;;14.96;65.68
72959;BME280;60008;50.826;6.896;2022-07-06T00:59:25;101866.28;;;14.97;65.16
72959;BME280;60008;50.826;6.896;2022-07-06T01:01:53;101860.13;;;15.04;64.84
72959;BME280;60008;50.826;6.896;2022-07-06T01:04:20;101856.25;;;14.99;65.26
72959;BME280;60008;50.826;6.896;2022-07-06T01:06:46;101864.06;;;14.92;65.90
72959;BME280;60008;50.826;6.896;2022-07-06T01:09:14;101864.19;;;14.82;66.50
72959;BME280;60008;50.826;6.896;2022-07-06T01:11:41;101870.28;;;14.59;66.04
72959;BME280;60008;50.826;6.896;2022-07-06T01:14:08;101867.00;;;14.73;66.55
72959;BME280;60008;50.826;6.896;2022-07-06T01:16:35;101878.41;;;14.91;65.78
72959;BME280;60008;50.826;6.896;2022-07-06T01:19:02;101872.91;;;14.93;65.33
72959;BME280;60008;50.826;6.896;2022-07-06T01:21:28;101867.56;;;14.93;65.88
72959;BME280;60008;50.826;6.896;2022-07-06T01:23:55;101860.31;;;14.69;67.00
72959;BME280;60008;50.826;6.896;2022-07-06T01:26:21;101860.34;;;14.77;65.29
72959;BME280;60008;50.826;6.896;2022-07-06T01:28:50;101867.03;;;14.47;66.69
72959;BME280;60008;50.826;6.896;2022-07-06T01:31:25;101858.31;;;14.19;67.93
72959;BME280;60008;50.826;6.896;2022-07-06T01:33:54;101863.28;;;14.14;68.32
72959;BME280;60008;50.826;6.896;2022-07-06T01:36:21;101862.88;;;14.01;69.05
72959;BME280;60008;50.826;6.896;2022-07-06T01:38:55;101862.94;;;13.92;69.44
72959;BME280;60008;50.826;6.896;2022-07-06T01:41:24;101857.31;;;13.95;70.13
72959;BME280;60008;50.826;6.896;2022-07-06T01:43:51;101854.69;;;13.77;70.45
72959;BME280;60008;50.826;6.896;2022-07-06T01:46:18;101860.50;;;13.81;70.54
72959;BME280;60008;50.826;6.896;2022-07-06T01:48:46;101859.00;;;13.78;70.67
72959;BME280;60008;50.826;6.896;2022-07-06T01:51:13;101857.72;;;13.82;70.68
72959;BME280;60008;50.826;6.896;2022-07-06T01:53:39;101851.63;;;13.72;71.10
72959;BME280;60008;50.826;6.896;2022-07-06T01:56:06;101852.31;;;13.74;71.25
72959;BME280;60008;50.826;6.896;2022-07-06T01:58:33;101855.88;;;13.83;71.29
72959;BME280;60008;50.826;6.896;2022-07-06T02:01:00;101854.75;;;13.85;70.80
72959;BME280;60008;50.826;6.896;2022-07-06T02:03:27;101854.16;;;13.56;72.16
72959;BME280;60008;50.826;6.896;2022-07-06T02:05:53;101858.94;;;13.70;70.98
72959;BME280;60008;50.826;6.896;2022-07-06T02:08:20;101850.41;;;13.49;71.81
72959;BME280;60008;50.826;6.896;2022-07-06T02:10:47;101854.28;;;13.54;72.58
72959;BME280;60008;50.826;6.896;2022-07-06T02:13:14;101861.31;;;13.55;71.71
72959;BME280;60008;50.826;6.896;2022-07-06T02:15:40;101867.00;;;13.60;70.94
72959;BME280;60008;50.826;6.896;2022-07-06T02:18:07;101865.19;;;13.61;71.63
72959;BME280;60008;50.826;6.896;2022-07-06T02:20:34;101857.44;;;13.50;71.85
72959;BME280;60008;50.826;6.896;2022-07-06T02:23:00;101859.63;;;13.54;71.66
72959;BME280;60008;50.826;6.896;2022-07-06T02:25:27;101860.44;;;13.72;71.10
72959;BME280;60008;50.826;6.896;2022-07-06T02:27:53;101862.50;;;13.79;71.22
72959;BME280;60008;50.826;6.896;2022-07-06T02:30:20;101861.09;;;13.66;70.17
72959;BME280;60008;50.826;6.896;2022-07-06T02:32:47;101861.06;;;13.49;70.73
72959;BME280;60008;50.826;6.896;2022-07-06T02:35:13;101856.97;;;13.37;71.17
72959;BME280;60008;50.826;6.896;2022-07-06T02:37:40;101866.91;;;13.35;71.65
72959;BME280;60008;50.826;6.896;2022-07-06T02:40:07;101859.97;;;12.97;71.94
72959;BME280;60008;50.826;6.896;2022-07-06T02:42:34;101857.81;;;12.83;73.13
72959;BME280;60008;50.826;6.896;2022-07-06T02:45:01;101860.34;;;12.84;74.24
72959;BME280;60008;50.826;6.896;2022-07-06T02:47:28;101863.66;;;12.96;73.97
72959;BME280;60008;50.826;6.896;2022-07-06T02:49:54;101861.88;;;13.04;73.41
72959;BME280;60008;50.826;6.896;2022-07-06T02:52:21;101863.66;;;12.96;73.91
72959;BME280;60008;50.826;6.896;2022-07-06T02:54:47;101863.88;;;13.12;72.81
72959;BME280;60008;50.826;6.896;2022-07-06T02:57:17;101863.47;;;13.07;72.49
72959;BME280;60008;50.826;6.896;2022-07-06T02:59:44;101866.66;;;13.10;72.91
72959;BME280;60008;50.826;6.896;2022-07-06T03:02:12;101868.13;;;12.95;72.85
72959;BME280;60008;50.826;6.896;2022-07-06T03:04:38;101867.22;;;13.04;72.41
72959;BME280;60008;50.826;6.896;2022-07-06T03:07:06;101864.34;;;12.88;72.39
72959;BME280;60008;50.826;6.896;2022-07-06T03:09:32;101864.44;;;12.69;73.30
72959;BME280;60008;50.826;6.896;2022-07-06T03:11:59;101872.75;;;12.66;74.16
72959;BME280;60008;50.826;6.896;2022-07-06T03:14:26;101872.19;;;12.63;74.69
72959;BME280;60008;50.826;6.896;2022-07-06T03:16:53;101867.09;;;12.69;74.70
72959;BME280;60008;50.826;6.896;2022-07-06T03:19:20;101873.09;;;12.81;73.63
72959;BME280;60008;50.826;6.896;2022-07-06T03:21:47;101876.59;;;12.81;74.06
72959;BME280;60008;50.826;6.896;2022-07-06T03:24:13;101878.13;;;12.84;73.54
72959;BME280;60008;50.826;6.896;2022-07-06T03:26:40;101875.63;;;12.82;73.87
72959;BME280;60008;50.826;6.896;2022-07-06T03:29:06;101881.34;;;12.78;73.58
72959;BME280;60008;50.826;6.896;2022-07-06T03:31:33;101878.28;;;12.82;73.67
72959;BME280;60008;50.826;6.896;2022-07-06T03:33:59;101884.19;;;12.67;73.76
72959;BME280;60008;50.826;6.896;2022-07-06T03:36:26;101886.28;;;12.73;74.11
72959;BME280;60008;50.826;6.896;2022-07-06T03:38:52;101896.31;;;12.51;74.66
72959;BME280;60008;50.826;6.896;2022-07-06T03:41:19;101893.28;;;12.74;74.90
72959;BME280;60008;50.826;6.896;2022-07-06T03:43:46;101897.59;;;12.75;74.10
72959;BME280;60008;50.826;6.896;2022-07-06T03:46:12;101889.06;;;12.81;73.83
72959;BME280;60008;50.826;6.896;2022-07-06T03:48:39;101896.25;;;12.61;74.02
72959;BME280;60008;50.826;6.896;2022-07-06T03:51:05;101906.78;;;12.63;73.84
72959;BME280;60008;50.826;6.896;2022-07-06T03:53:33;101892.84;;;12.41;75.90
72959;BME280;60008;50.826;6.896;2022-07-06T03:55:59;101892.84;;;12.41;74.97
72959;BME280;60008;50.826;6.896;2022-07-06T03:58:45;101891.84;;;12.42;75.45
72959;BME280;60008;50.826;6.896;2022-07-06T04:01:11;101888.09;;;12.26;75.34
72959;BME280;60008;50.826;6.896;2022-07-06T04:03:38;101890.22;;;12.22;76.12
72959;BME280;60008;50.826;6.896;2022-07-06T04:06:05;101891.91;;;12.14;76.64
72959;BME280;60008;50.826;6.896;2022-07-06T04:08:31;101890.34;;;12.30;77.24
72959;BME280;60008;50.826;6.896;2022-07-06T04:10:58;101894.66;;;12.41;77.74
72959;BME280;60008;50.826;6.896;2022-07-06T04:13:24;101891.53;;;12.55;76.39
72959;BME280;60008;50.826;6.896;2022-07-06T04:15:54;101885.59;;;12.24;76.27
72959;BME280;60008;50.826;6.896;2022-07-06T04:18:21;101888.78;;;12.37;76.76
72959;BME280;60008;50.826;6.896;2022-07-06T04:20:48;101891.31;;;12.39;76.90
72959;BME280;60008;50.826;6.896;2022-07-06T04:23:14;101898.16;;;12.32;76.33
72959;BME280;60008;50.826;6.896;2022-07-06T04:25:41;101902.03;;;12.57;75.70
72959;BME280;60008;50.826;6.896;2022-07-06T04:28:08;101903.44;;;12.61;75.60
72959;BME280;60008;50.826;6.896;2022-07-06T04:30:34;101909.16;;;12.66;74.97
72959;BME280;60008;50.826;6.896;2022-07-06T04:33:01;101913.34;;;12.59;74.74
72959;BME280;60008;50.826;6.896;2022-07-06T04:35:27;101914.53;;;12.37;76.96
72959;BME280;60008;50.826;6.896;2022-07-06T04:37:55;101909.56;;;12.61;75.04
72959;BME280;60008;50.826;6.896;2022-07-06T04:40:22;101914.88;;;12.61;75.23
72959;BME280;60008;50.826;6.896;2022-07-06T04:42:48;101918.88;;;12.84;74.91
72959;BME280;60008;50.826;6.896;2022-07-06T04:45:15;101914.03;;;12.97;73.87
72959;BME280;60008;50.826;6.896;2022-07-06T04:47:41;101918.03;;;12.84;74.91
72959;BME280;60008;50.826;6.896;2022-07-06T04:50:10;101906.16;;;13.05;74.20
72959;BME280;60008;50.826;6.896;2022-07-06T04:52:38;101910.50;;;12.79;74.36
72959;BME280;60008;50.826;6.896;2022-07-06T04:55:04;101906.44;;;13.12;73.94
72959;BME280;60008;50.826;6.896;2022-07-06T04:57:32;101904.41;;;13.24;73.60
72959;BME280;60008;50.826;6.896;2022-07-06T04:59:59;101910.47;;;13.16;73.69
72959;BME280;60008;50.826;6.896;2022-07-06T05:02:25;101912.81;;;13.29;73.54
72959;BME280;60008;50.826;6.896;2022-07-06T05:04:52;101925.75;;;13.41;73.24
72959;BME280;60008;50.826;6.896;2022-07-06T05:07:19;101920.69;;;13.83;71.03
72959;BME280;60008;50.826;6.896;2022-07-06T05:09:45;101925.63;;;13.78;71.31
72959;BME280;60008;50.826;6.896;2022-07-06T05:12:17;101915.41;;;13.73;71.43
72959;BME280;60008;50.826;6.896;2022-07-06T05:14:44;101917.41;;;13.71;71.33
72959;BME280;60008;50.826;6.896;2022-07-06T05:17:10;101915.56;;;13.54;73.13
72959;BME280;60008;50.826;6.896;2022-07-06T05:19:37;101917.84;;;13.49;72.22
72959;BME280;60008;50.826;6.896;2022-07-06T05:22:03;101921.09;;;13.43;73.07
72959;BME280;60008;50.826;6.896;2022-07-06T05:24:30;101916.03;;;13.67;73.23
72959;BME280;60008;50.826;6.896;2022-07-06T05:26:56;101913.22;;;13.69;72.35
72959;BME280;60008;50.826;6.896;2022-07-06T05:29:23;101911.63;;;13.76;71.69
72959;BME280;60008;50.826;6.896;2022-07-06T05:31:49;101909.63;;;13.96;71.50
72959;BME280;60008;50.826;6.896;2022-07-06T05:34:16;101911.09;;;13.90;72.09
72959;BME280;60008;50.826;6.896;2022-07-06T05:36:43;101905.16;;;13.96;72.32
72959;BME280;60008;50.826;6.896;2022-07-06T05:39:10;101918.66;;;14.03;71.89
72959;BME280;60008;50.826;6.896;2022-07-06T05:41:37;101916.09;;;13.93;71.95
72959;BME280;60008;50.826;6.896;2022-07-06T05:44:03;101911.72;;;14.27;71.20
72959;BME280;60008;50.826;6.896;2022-07-06T05:46:30;101914.78;;;14.32;70.87
72959;BME280;60008;50.826;6.896;2022-07-06T05:48:57;101918.34;;;14.41;70.62
72959;BME280;60008;50.826;6.896;2022-07-06T05:51:42;101915.94;;;14.12;71.46
72959;BME280;60008;50.826;6.896;2022-07-06T05:54:08;101920.53;;;14.28;71.46
72959;BME280;60008;50.826;6.896;2022-07-06T05:56:35;101929.72;;;14.51;70.07
72959;BME280;60008;50.826;6.896;2022-07-06T05:59:01;101928.03;;;14.42;70.45
72959;BME280;60008;50.826;6.896;2022-07-06T06:01:28;101927.72;;;14.27;70.95
72959;BME280;60008;50.826;6.896;2022-07-06T06:03:55;101933.34;;;14.24;70.60
72959;BME280;60008;50.826;6.896;2022-07-06T06:06:21;101933.69;;;14.04;71.51
72959;BME280;60008;50.826;6.896;2022-07-06T06:08:48;101948.91;;;14.29;71.04
72959;BME280;60008;50.826;6.896;2022-07-06T06:11:15;101935.72;;;14.45;70.87
72959;BME280;60008;50.826;6.896;2022-07-06T06:13:41;101941.00;;;14.37;71.41
72959;BME280;60008;50.826;6.896;2022-07-06T06:16:08;101946.19;;;14.64;71.57
72959;BME280;60008;50.826;6.896;2022-07-06T06:18:35;101952.06;;;14.76;70.60
72959;BME280;60008;50.826;6.896;2022-07-06T06:21:07;101941.91;;;15.05;69.32
72959;BME280;60008;50.826;6.896;2022-07-06T06:23:34;101950.38;;;15.01;68.51
72959;BME280;60008;50.826;6.896;2022-07-06T06:26:01;101947.78;;;15.17;68.32
72959;BME280;60008;50.826;6.896;2022-07-06T06:28:27;101938.25;;;15.14;68.41
72959;BME280;60008;50.826;6.896;2022-07-06T06:30:54;101949.44;;;15.18;68.95
72959;BME280;60008;50.826;6.896;2022-07-06T06:33:20;101949.59;;;15.08;68.03
72959;BME280;60008;50.826;6.896;2022-07-06T06:35:52;101945.47;;;15.22;67.32
72959;BME280;60008;50.826;6.896;2022-07-06T06:38:20;101945.59;;;15.46;67.41
72959;BME280;60008;50.826;6.896;2022-07-06T06:40:48;101942.75;;;15.56;66.86
72959;BME280;60008;50.826;6.896;2022-07-06T06:43:15;101943.66;;;15.30;67.41
72959;BME280;60008;50.826;6.896;2022-07-06T06:45:41;101949.22;;;15.45;66.75
72959;BME280;60008;50.826;6.896;2022-07-06T06:48:08;101941.94;;;15.71;66.34
72959;BME280;60008;50.826;6.896;2022-07-06T06:50:42;101946.84;;;16.08;64.70
72959;BME280;60008;50.826;6.896;2022-07-06T06:53:09;101952.34;;;16.31;65.00
72959;BME280;60008;50.826;6.896;2022-07-06T06:55:35;101951.19;;;16.33;64.15
72959;BME280;60008;50.826;6.896;2022-07-06T06:58:02;101957.38;;;16.26;63.70
72959;BME280;60008;50.826;6.896;2022-07-06T07:00:29;101956.38;;;16.43;63.54
72959;BME280;60008;50.826;6.896;2022-07-06T07:02:56;101953.03;;;16.41;63.09
72959;BME280;60008;50.826;6.896;2022-07-06T07:05:22;101950.69;;;16.22;63.48
72959;BME280;60008;50.826;6.896;2022-07-06T07:07:49;101954.88;;;16.00;63.17
72959;BME280;60008;50.826;6.896;2022-07-06T07:10:16;101950.38;;;16.00;63.90
72959;BME280;60008;50.826;6.896;2022-07-06T07:12:51;101955.38;;;16.60;63.60
72959;BME280;60008;50.826;6.896;2022-07-06T07:15:18;101962.38;;;16.61;61.98
72959;BME280;60008;50.826;6.896;2022-07-06T07:17:45;101962.69;;;16.74;61.43
72959;BME280;60008;50.826;6.896;2022-07-06T07:20:12;101954.44;;;17.00;60.80
72959;BME280;60008;50.826;6.896;2022-07-06T07:22:38;101950.63;;;17.64;59.30
72959;BME280;60008;50.826;6.896;2022-07-06T07:25:06;101953.44;;;17.70;59.28
72959;BME280;60008;50.826;6.896;2022-07-06T07:27:33;101944.31;;;18.02;58.11
72959;BME280;60008;50.826;6.896;2022-07-06T07:29:59;101957.06;;;17.77;56.74
72959;BME280;60008;50.826;6.896;2022-07-06T07:32:26;101960.75;;;17.84;55.97
72959;BME280;60008;50.826;6.896;2022-07-06T07:34:53;101951.66;;;18.68;53.88
72959;BME280;60008;50.826;6.896;2022-07-06T07:37:19;101960.44;;;18.02;55.38
72959;BME280;60008;50.826;6.896;2022-07-06T07:39:46;101951.66;;;18.08;54.87
72959;BME280;60008;50.826;6.896;2022-07-06T07:42:12;101959.06;;;18.43;53.97
72959;BME280;60008;50.826;6.896;2022-07-06T07:44:44;101961.78;;;19.10;53.25
72959;BME280;60008;50.826;6.896;2022-07-06T07:47:10;101967.38;;;20.44;50.28
72959;BME280;60008;50.826;6.896;2022-07-06T07:49:37;101965.69;;;20.92;48.16
72959;BME280;60008;50.826;6.896;2022-07-06T07:52:04;101965.38;;;20.80;45.98
72959;BME280;60008;50.826;6.896;2022-07-06T07:54:30;101964.72;;;19.44;50.33
72959;BME280;60008;50.826;6.896;2022-07-06T07:56:57;101962.09;;;20.85;47.36
72959;BME280;60008;50.826;6.896;2022-07-06T07:59:24;101962.31;;;20.55;45.59
72959;BME280;60008;50.826;6.896;2022-07-06T08:01:51;101954.78;;;20.23;45.32
72959;BME280;60008;50.826;6.896;2022-07-06T08:04:17;101959.84;;;20.11;46.18
72959;BME280;60008;50.826;6.896;2022-07-06T08:06:44;101954.97;;;21.05;43.86
72959;BME280;60008;50.826;6.896;2022-07-06T08:09:11;101952.91;;;21.07;44.28
72959;BME280;60008;50.826;6.896;2022-07-06T08:11:38;101951.34;;;21.19;44.32
72959;BME280;60008;50.826;6.896;2022-07-06T08:14:04;101946.22;;;22.63;42.14
72959;BME280;60008;50.826;6.896;2022-07-06T08:16:31;101949.31;;;22.80;40.84
72959;BME280;60008;50.826;6.896;2022-07-06T08:18:58;101953.94;;;19.59;47.42
72959;BME280;60008;50.826;6.896;2022-07-06T08:21:25;101959.84;;;18.15;53.84
72959;BME280;60008;50.826;6.896;2022-07-06T08:23:53;101971.94;;;17.18;54.44
72959;BME280;60008;50.826;6.896;2022-07-06T08:26:21;101964.97;;;17.01;53.88
72959;BME280;60008;50.826;6.896;2022-07-06T08:28:47;101966.09;;;17.15;54.96
72959;BME280;60008;50.826;6.896;2022-07-06T08:31:14;101965.56;;;16.73;55.37
72959;BME280;60008;50.826;6.896;2022-07-06T08:34:01;101972.22;;;16.85;56.83
72959;BME280;60008;50.826;6.896;2022-07-06T08:36:28;101969.63;;;17.07;55.97
72959;BME280;60008;50.826;6.896;2022-07-06T08:38:55;101961.75;;;17.53;54.61
72959;BME280;60008;50.826;6.896;2022-07-06T08:41:24;101963.84;;;17.35;54.80
72959;BME280;60008;50.826;6.896;2022-07-06T08:43:52;101960.31;;;17.96;55.14
72959;BME280;60008;50.826;6.896;2022-07-06T08:46:20;101966.78;;;18.47;53.40
72959;BME280;60008;50.826;6.896;2022-07-06T08:48:48;101968.97;;;18.28;54.17
72959;BME280;60008;50.826;6.896;2022-07-06T08:51:14;101962.53;;;18.15;52.87
72959;BME280;60008;50.826;6.896;2022-07-06T08:53:42;101970.69;;;17.76;54.88
72959;BME280;60008;50.826;6.896;2022-07-06T08:56:09;101968.66;;;17.47;56.19
72959;BME280;60008;50.826;6.896;2022-07-06T08:58:37;101969.44;;;17.56;56.78
72959;BME280;60008;50.826;6.896;2022-07-06T09:01:09;101966.56;;;17.65;56.39
72959;BME280;60008;50.826;6.896;2022-07-06T09:03:38;101964.28;;;17.46;58.07
72959;BME280;60008;50.826;6.896;2022-07-06T09:06:06;101976.13;;;17.21;57.01
72959;BME280;60008;50.826;6.896;2022-07-06T09:08:33;101964.31;;;17.38;57.35
72959;BME280;60008;50.826;6.896;2022-07-06T09:11:03;101968.94;;;17.60;56.52
72959;BME280;60008;50.826;6.896;2022-07-06T09:13:30;101970.13;;;17.58;56.23
72959;BME280;60008;50.826;6.896;2022-07-06T09:16:11;101973.56;;;17.74;57.19
72959;BME280;60008;50.826;6.896;2022-07-06T09:18:59;101967.81;;;17.77;55.46
72959;BME280;60008;50.826;6.896;2022-07-06T09:21:30;101972.72;;;17.74;56.00
72959;BME280;60008;50.826;6.896;2022-07-06T09:24:01;101971.44;;;17.62;55.84
72959;BME280;60008;50.826;6.896;2022-07-06T09:26:30;101973.66;;;17.42;55.72
72959;BME280;60008;50.826;6.896;2022-07-06T09:28:57;101962.25;;;17.48;55.57
72959;BME280;60008;50.826;6.896;2022-07-06T09:31:25;101968.25;;;17.58;55.70
72959;BME280;60008;50.826;6.896;2022-07-06T09:39:25;101967.94;;;17.84;54.27
72959;BME280;60008;50.826;6.896;2022-07-06T09:41:59;101964.84;;;17.95;55.67
72959;BME280;60008;50.826;6.896;2022-07-06T09:44:28;101962.81;;;17.74;56.76
72959;BME280;60008;50.826;6.896;2022-07-06T09:46:56;101964.91;;;17.56;55.33
72959;BME280;60008;50.826;6.896;2022-07-06T09:49:24;101969.63;;;17.85;55.77
72959;BME280;60008;50.826;6.896;2022-07-06T09:51:53;101961.81;;;17.98;54.98
72959;BME280;60008;50.826;6.896;2022-07-06T09:54:20;101976.31;;;17.50;55.80
72959;BME280;60008;50.826;6.896;2022-07-06T09:56:48;101970.03;;;17.74;55.81
72959;BME280;60008;50.826;6.896;2022-07-06T09:59:19;101976.50;;;17.10;55.81
72959;BME280;60008;50.826;6.896;2022-07-06T10:01:51;101978.94;;;17.27;57.28
72959;BME280;60008;50.826;6.896;2022-07-06T10:04:18;101969.22;;;17.26;56.19
72959;BME280;60008;50.826;6.896;2022-07-06T10:06:47;101972.88;;;17.72;55.73
72959;BME280;60008;50.826;6.896;2022-07-06T10:09:15;101966.34;;;17.98;54.98
72959;BME280;60008;50.826;6.896;2022-07-06T10:11:53;101967.03;;;17.92;54.04
72959;BME280;60008;50.826;6.896;2022-07-06T10:14:40;101968.47;;;18.02;54.42
72959;BME280;60008;50.826;6.896;2022-07-06T10:17:07;101971.81;;;17.81;54.88
72959;BME280;60008;50.826;6.896;2022-07-06T10:19:34;101977.63;;;17.62;55.02
72959;BME280;60008;50.826;6.896;2022-07-06T10:22:02;101979.44;;;17.70;54.61
72959;BME280;60008;50.826;6.896;2022-07-06T10:24:30;101974.69;;;18.25;54.45
72959;BME280;60008;50.826;6.896;2022-07-06T10:26:57;101971.97;;;18.85;53.00
72959;BME280;60008;50.826;6.896;2022-07-06T10:29:24;101961.50;;;19.05;52.26
72959;BME280;60008;50.826;6.896;2022-07-06T10:31:52;101955.94;;;19.93;49.11
72959;BME280;60008;50.826;6.896;2022-07-06T10:34:20;101957.31;;;20.80;45.80
72959;BME280;60008;50.826;6.896;2022-07-06T10:36:52;101957.44;;;21.47;44.23
72959;BME280;60008;50.826;6.896;2022-07-06T10:39:36;101960.53;;;22.57;40.21
72959;BME280;60008;50.826;6.896;2022-07-06T10:42:41;101958.94;;;23.40;38.72
72959;BME280;60008;50.826;6.896;2022-07-06T10:45:10;101950.91;;;23.07;38.18
72959;BME280;60008;50.826;6.896;2022-07-06T10:47:39;101942.75;;;23.64;38.25
72959;BME280;60008;50.826;6.896;2022-07-06T10:50:06;101943.78;;;24.01;37.69
72959;BME280;60008;50.826;6.896;2022-07-06T10:52:57;101949.13;;;23.32;39.22
72959;BME280;60008;50.826;6.896;2022-07-06T10:55:55;101934.78;;;22.22;41.49
72959;BME280;60008;50.826;6.896;2022-07-06T10:58:41;101940.19;;;22.68;39.71
72959;BME280;60008;50.826;6.896;2022-07-06T11:01:09;101938.94;;;23.34;38.82
72959;BME280;60008;50.826;6.896;2022-07-06T11:06:11;101930.22;;;22.42;39.40
72959;BME280;60008;50.826;6.896;2022-07-06T11:11:25;101938.53;;;23.75;36.62
72959;BME280;60008;50.826;6.896;2022-07-06T11:14:04;101940.91;;;25.43;33.69
72959;BME280;60008;50.826;6.896;2022-07-06T11:16:33;101940.38;;;22.73;37.47
72959;BME280;60008;50.826;6.896;2022-07-06T11:19:12;101935.06;;;21.47;40.40
72959;BME280;60008;50.826;6.896;2022-07-06T11:24:15;101937.81;;;21.12;42.73
72959;BME280;60008;50.826;6.896;2022-07-06T11:26:47;101940.34;;;22.92;37.87
72959;BME280;60008;50.826;6.896;2022-07-06T11:29:16;101933.97;;;22.47;38.43
72959;BME280;60008;50.826;6.896;2022-07-06T11:31:46;101939.66;;;23.10;39.70
72959;BME280;60008;50.826;6.896;2022-07-06T11:34:18;101943.69;;;21.29;41.52
72959;BME280;60008;50.826;6.896;2022-07-06T11:36:45;101930.34;;;22.93;38.78
72959;BME280;60008;50.826;6.896;2022-07-06T11:39:12;101922.06;;;22.81;38.51
72959;BME280;60008;50.826;6.896;2022-07-06T11:41:40;101926.00;;;21.74;43.21
72959;BME280;60008;50.826;6.896;2022-07-06T11:44:15;101932.09;;;22.35;41.12
72959;BME280;60008;50.826;6.896;2022-07-06T11:46:42;101928.13;;;20.56;43.13
72959;BME280;60008;50.826;6.896;2022-07-06T11:49:09;101935.81;;;20.31;42.63
72959;BME280;60008;50.826;6.896;2022-07-06T11:51:37;101935.72;;;20.73;41.14
72959;BME280;60008;50.826;6.896;2022-07-06T11:54:19;101929.91;;;20.76;42.68
72959;BME280;60008;50.826;6.896;2022-07-06T11:56:54;101928.75;;;21.26;40.31
72959;BME280;60008;50.826;6.896;2022-07-06T11:59:23;101924.00;;;21.35;39.79
72959;BME280;60008;50.826;6.896;2022-07-06T12:02:08;101925.53;;;21.03;41.41
72959;BME280;60008;50.826;6.896;2022-07-06T12:04:37;101926.63;;;21.15;41.39
72959;BME280;60008;50.826;6.896;2022-07-06T12:07:06;101920.13;;;21.51;39.89
72959;BME280;60008;50.826;6.896;2022-07-06T12:09:36;101923.56;;;21.25;41.32
72959;BME280;60008;50.826;6.896;2022-07-06T12:12:03;101924.38;;;21.19;41.45
72959;BME280;60008;50.826;6.896;2022-07-06T12:14:32;101921.81;;;20.70;43.28
72959;BME280;60008;50.826;6.896;2022-07-06T12:17:04;101923.25;;;20.38;43.13
72959;BME280;60008;50.826;6.896;2022-07-06T12:19:32;101920.50;;;20.10;43.94
72959;BME280;60008;50.826;6.896;2022-07-06T12:21:59;101916.97;;;20.31;44.48
72959;BME280;60008;50.826;6.896;2022-07-06T12:24:28;101921.59;;;20.71;43.95
72959;BME280;60008;50.826;6.896;2022-07-06T12:26:57;101908.28;;;20.63;45.29
72959;BME280;60008;50.826;6.896;2022-07-06T12:29:24;101912.56;;;20.51;42.87
72959;BME280;60008;50.826;6.896;2022-07-06T12:31:53;101910.41;;;20.74;42.29
72959;BME280;60008;50.826;6.896;2022-07-06T12:34:25;101901.34;;;20.48;43.27
72959;BME280;60008;50.826;6.896;2022-07-06T12:36:59;101894.38;;;20.60;42.11
72959;BME280;60008;50.826;6.896;2022-07-06T12:39:43;101900.03;;;20.71;42.22
72959;BME280;60008;50.826;6.896;2022-07-06T12:42:13;101898.34;;;20.64;41.68
72959;BME280;60008;50.826;6.896;2022-07-06T12:44:49;101888.56;;;20.97;42.20
72959;BME280;60008;50.826;6.896;2022-07-06T12:47:18;101888.06;;;20.81;41.56
72959;BME280;60008;50.826;6.896;2022-07-06T12:49:45;101881.34;;;20.63;42.64
72959;BME280;60008;50.826;6.896;2022-07-06T12:52:13;101883.97;;;20.91;43.15
72959;BME280;60008;50.826;6.896;2022-07-06T12:54:50;101881.16;;;21.06;42.82
72959;BME280;60008;50.826;6.896;2022-07-06T12:57:21;101873.75;;;21.21;40.49
72959;BME280;60008;50.826;6.896;2022-07-06T12:59:56;101872.41;;;21.04;40.95
72959;BME280;60008;50.826;6.896;2022-07-06T13:02:31;101869.06;;;20.95;41.92
72959;BME280;60008;50.826;6.896;2022-07-06T13:05:22;101861.34;;;21.33;42.21
72959;BME280;60008;50.826;6.896;2022-07-06T13:07:57;101861.75;;;21.30;41.25
72959;BME280;60008;50.826;6.896;2022-07-06T13:10:24;101869.66;;;20.84;40.15